sensor_id;sensor_type;location;lat;lon;timestamp;pressure;altitude;pressure_sealevel;temperature;humidity
75146;BME280;63641;46.526;24.612;2023-12-20T00:02:16;97634.41;;;-1.97;77.89
75146;BME280;63641;46.526;24.612;2023-12-20T00:04:43;97625.00;;;-2.00;77.99
75146;BME280;63641;46.526;24.612;2023-12-20T00:07:10;97618.44;;;-2.04;77.71
75146;BME280;63641;46.526;24.612;2023-12-20T00:09:37;97609.44;;;-2.09;78.30
75146;BME280;63641;46.526;24.612;2023-12-20T00:12:04;97612.72;;;-2.07;78.07
75146;BME280;63641;46.526;24.612;2023-12-20T00:14:32;97609.69;;;-2.04;77.99
75146;BME280;63641;46.526;24.612;2023-12-20T00:16:58;97607.47;;;-2.01;78.04
75146;BME280;63641;46.526;24.612;2023-12-20T00:19:25;97595.81;;;-2.00;78.04
75146;BME280;63641;46.526;24.612;2023-12-20T00:21:52;97587.44;;;-2.03;77.73
75146;BME280;63641;46.526;24.612;2023-12-20T00:24:19;97585.44;;;-2.01;77.74
75146;BME280;63641;46.526;24.612;2023-12-20T00:26:46;97587.06;;;-2.00;77.92
75146;BME280;63641;46.526;24.612;2023-12-20T00:29:14;97589.31;;;-1.97;78.02
75146;BME280;63641;46.526;24.612;2023-12-20T00:31:41;97586.44;;;-2.02;77.59
75146;BME280;63641;46.526;24.612;2023-12-20T00:34:08;97578.88;;;-2.05;78.00
75146;BME280;63641;46.526;24.612;2023-12-20T00:36:35;97567.84;;;-2.09;77.76
75146;BME280;63641;46.526;24.612;2023-12-20T00:39:03;97567.22;;;-2.11;77.68
75146;BME280;63641;46.526;24.612;2023-12-20T00:41:30;97570.69;;;-2.10;77.83
75146;BME280;63641;46.526;24.612;2023-12-20T00:43:57;97566.59;;;-2.13;77.49
75146;BME280;63641;46.526;24.612;2023-12-20T00:46:24;97556.56;;;-2.17;77.69
75146;BME280;63641;46.526;24.612;2023-12-20T00:48:51;97547.94;;;-2.26;77.69
75146;BME280;63641;46.526;24.612;2023-12-20T00:51:18;97544.25;;;-2.32;77.78
75146;BME280;63641;46.526;24.612;2023-12-20T00:53:45;97539.72;;;-2.38;77.82
75146;BME280;63641;46.526;24.612;2023-12-20T00:56:16;97538.84;;;-2.45;78.13
75146;BME280;63641;46.526;24.612;2023-12-20T00:58:43;97535.78;;;-2.49;78.15
75146;BME280;63641;46.526;24.612;2023-12-20T01:01:10;97542.53;;;-2.46;78.37
75146;BME280;63641;46.526;24.612;2023-12-20T01:03:37;97534.16;;;-2.43;78.05
75146;BME280;63641;46.526;24.612;2023-12-20T01:06:05;97529.31;;;-2.39;78.09
75146;BME280;63641;46.526;24.612;2023-12-20T01:08:32;97529.31;;;-2.39;78.08
75146;BME280;63641;46.526;24.612;2023-12-20T01:11:04;97531.50;;;-2.43;78.17
75146;BME280;63641;46.526;24.612;2023-12-20T01:13:32;97528.47;;;-2.47;78.04
75146;BME280;63641;46.526;24.612;2023-12-20T01:15:59;97532.31;;;-2.49;78.19
75146;BME280;63641;46.526;24.612;2023-12-20T01:18:26;97525.56;;;-2.52;78.11
75146;BME280;63641;46.526;24.612;2023-12-20T01:20:53;97520.22;;;-2.58;78.01
75146;BME280;63641;46.526;24.612;2023-12-20T01:23:20;97510.84;;;-2.61;77.91
75146;BME280;63641;46.526;24.612;2023-12-20T01:25:46;97499.00;;;-2.65;78.17
75146;BME280;63641;46.526;24.612;2023-12-20T01:28:13;97501.88;;;-2.60;78.08
75146;BME280;63641;46.526;24.612;2023-12-20T01:30:40;97503.31;;;-2.57;78.14
75146;BME280;63641;46.526;24.612;2023-12-20T01:33:07;97495.75;;;-2.60;77.82
75146;BME280;63641;46.526;24.612;2023-12-20T01:35:34;97497.88;;;-2.49;77.77
75146;BME280;63641;46.526;24.612;2023-12-20T01:38:01;97492.13;;;-2.53;77.96
75146;BME280;63641;46.526;24.612;2023-12-20T01:40:27;97496.78;;;-2.55;77.59
75146;BME280;63641;46.526;24.612;2023-12-20T01:43:01;97496.38;;;-2.58;78.09
75146;BME280;63641;46.526;24.612;2023-12-20T01:45:28;97494.53;;;-2.58;77.96
75146;BME280;63641;46.526;24.612;2023-12-20T01:47:56;97483.13;;;-2.58;77.99
75146;BME280;63641;46.526;24.612;2023-12-20T01:50:24;97471.72;;;-2.59;77.77
75146;BME280;63641;46.526;24.612;2023-12-20T01:52:55;97469.06;;;-2.59;77.99
75146;BME280;63641;46.526;24.612;2023-12-20T01:55:25;97457.22;;;-2.63;77.73
75146;BME280;63641;46.526;24.612;2023-12-20T01:57:52;97452.31;;;-2.66;77.99
75146;BME280;63641;46.526;24.612;2023-12-20T02:00:19;97453.38;;;-2.60;77.79
75146;BME280;63641;46.526;24.612;2023-12-20T02:02:51;97448.25;;;-2.62;77.95
75146;BME280;63641;46.526;24.612;2023-12-20T02:05:19;97436.03;;;-2.63;77.77
75146;BME280;63641;46.526;24.612;2023-12-20T02:07:46;97442.94;;;-2.62;77.87
75146;BME280;63641;46.526;24.612;2023-12-20T02:10:14;97439.06;;;-2.66;78.05
75146;BME280;63641;46.526;24.612;2023-12-20T02:12:42;97426.63;;;-2.72;77.71
75146;BME280;63641;46.526;24.612;2023-12-20T02:15:09;97432.09;;;-2.74;78.00
75146;BME280;63641;46.526;24.612;2023-12-20T02:17:36;97427.81;;;-2.75;78.12
75146;BME280;63641;46.526;24.612;2023-12-20T02:20:08;97420.31;;;-2.71;77.75
75146;BME280;63641;46.526;24.612;2023-12-20T02:22:36;97414.63;;;-2.68;77.97
75146;BME280;63641;46.526;24.612;2023-12-20T02:25:03;97413.97;;;-2.70;77.90
75146;BME280;63641;46.526;24.612;2023-12-20T02:27:30;97407.88;;;-2.71;77.80
75146;BME280;63641;46.526;24.612;2023-12-20T02:29:57;97400.34;;;-2.67;77.78
75146;BME280;63641;46.526;24.612;2023-12-20T02:32:24;97390.41;;;-2.65;77.71
75146;BME280;63641;46.526;24.612;2023-12-20T02:34:55;97388.56;;;-2.64;77.65
75146;BME280;63641;46.526;24.612;2023-12-20T02:37:23;97381.03;;;-2.61;77.96
75146;BME280;63641;46.526;24.612;2023-12-20T02:39:50;97370.22;;;-2.59;78.20
75146;BME280;63641;46.526;24.612;2023-12-20T02:42:17;97371.28;;;-2.54;77.91
75146;BME280;63641;46.526;24.612;2023-12-20T02:44:44;97362.50;;;-2.54;77.71
75146;BME280;63641;46.526;24.612;2023-12-20T02:47:11;97356.38;;;-2.61;77.81
75146;BME280;63641;46.526;24.612;2023-12-20T02:49:37;97369.84;;;-2.56;77.87
75146;BME280;63641;46.526;24.612;2023-12-20T02:52:04;97368.00;;;-2.56;77.98
75146;BME280;63641;46.526;24.612;2023-12-20T02:54:31;97364.72;;;-2.58;77.88
75146;BME280;63641;46.526;24.612;2023-12-20T02:56:58;97367.38;;;-2.58;77.91
75146;BME280;63641;46.526;24.612;2023-12-20T02:59:25;97369.84;;;-2.56;78.21
75146;BME280;63641;46.526;24.612;2023-12-20T03:01:52;97366.81;;;-2.53;77.81
75146;BME280;63641;46.526;24.612;2023-12-20T03:04:19;97366.56;;;-2.58;77.54
75146;BME280;63641;46.526;24.612;2023-12-20T03:06:46;97358.78;;;-2.67;77.95
75146;BME280;63641;46.526;24.612;2023-12-20T03:09:13;97349.22;;;-2.68;78.12
75146;BME280;63641;46.526;24.612;2023-12-20T03:11:40;97359.59;;;-2.66;77.93
75146;BME280;63641;46.526;24.612;2023-12-20T03:14:06;97358.56;;;-2.72;77.89
75146;BME280;63641;46.526;24.612;2023-12-20T03:16:37;97360.78;;;-2.75;77.98
75146;BME280;63641;46.526;24.612;2023-12-20T03:19:04;97350.16;;;-2.82;78.07
75146;BME280;63641;46.526;24.612;2023-12-20T03:21:30;97352.16;;;-2.84;78.00
75146;BME280;63641;46.526;24.612;2023-12-20T03:23:57;97352.16;;;-2.84;78.05
75146;BME280;63641;46.526;24.612;2023-12-20T03:26:24;97355.84;;;-2.85;77.93
75146;BME280;63641;46.526;24.612;2023-12-20T03:28:51;97339.94;;;-2.85;77.91
75146;BME280;63641;46.526;24.612;2023-12-20T03:31:18;97340.97;;;-2.86;78.20
75146;BME280;63641;46.526;24.612;2023-12-20T03:33:46;97334.28;;;-2.82;78.12
75146;BME280;63641;46.526;24.612;2023-12-20T03:36:16;97335.47;;;-2.84;77.88
75146;BME280;63641;46.526;24.612;2023-12-20T03:38:44;97331.41;;;-2.87;77.85
75146;BME280;63641;46.526;24.612;2023-12-20T03:41:11;97329.16;;;-2.90;77.85
75146;BME280;63641;46.526;24.612;2023-12-20T03:43:38;97331.41;;;-2.87;78.05
75146;BME280;63641;46.526;24.612;2023-12-20T03:46:05;97331.00;;;-2.84;78.24
75146;BME280;63641;46.526;24.612;2023-12-20T03:48:32;97321.25;;;-2.83;78.11
75146;BME280;63641;46.526;24.612;2023-12-20T03:50:59;97322.47;;;-2.79;78.07
75146;BME280;63641;46.526;24.612;2023-12-20T03:53:26;97320.66;;;-2.79;77.69
75146;BME280;63641;46.526;24.612;2023-12-20T03:55:52;97316.97;;;-2.78;77.99
75146;BME280;63641;46.526;24.612;2023-12-20T03:58:19;97317.19;;;-2.79;77.83
75146;BME280;63641;46.526;24.612;2023-12-20T04:00:46;97319.22;;;-2.75;77.78
75146;BME280;63641;46.526;24.612;2023-12-20T04:03:13;97313.72;;;-2.73;78.06
75146;BME280;63641;46.526;24.612;2023-12-20T04:05:40;97314.75;;;-2.74;77.66
75146;BME280;63641;46.526;24.612;2023-12-20T04:08:08;97308.63;;;-2.75;77.80
75146;BME280;63641;46.526;24.612;2023-12-20T04:10:35;97307.81;;;-2.75;77.89
75146;BME280;63641;46.526;24.612;2023-12-20T04:13:04;97300.06;;;-2.77;77.63
75146;BME280;63641;46.526;24.612;2023-12-20T04:15:31;97294.34;;;-2.80;77.78
75146;BME280;63641;46.526;24.612;2023-12-20T04:18:14;97296.97;;;-2.87;77.75
75146;BME280;63641;46.526;24.612;2023-12-20T04:20:41;97292.63;;;-2.95;77.82
75146;BME280;63641;46.526;24.612;2023-12-20T04:23:08;97296.53;;;-2.97;78.27
75146;BME280;63641;46.526;24.612;2023-12-20T04:25:35;97292.63;;;-3.01;77.93
75146;BME280;63641;46.526;24.612;2023-12-20T04:28:02;97289.13;;;-3.08;77.89
75146;BME280;63641;46.526;24.612;2023-12-20T04:30:29;97285.25;;;-3.12;78.25
75146;BME280;63641;46.526;24.612;2023-12-20T04:32:56;97267.28;;;-3.17;78.40
75146;BME280;63641;46.526;24.612;2023-12-20T04:35:23;97265.06;;;-3.20;78.50
75146;BME280;63641;46.526;24.612;2023-12-20T04:37:50;97268.13;;;-3.17;78.41
75146;BME280;63641;46.526;24.612;2023-12-20T04:40:17;97256.69;;;-3.17;78.48
75146;BME280;63641;46.526;24.612;2023-12-20T04:42:44;97255.88;;;-3.18;78.14
75146;BME280;63641;46.526;24.612;2023-12-20T04:45:11;97253.06;;;-3.16;78.35
75146;BME280;63641;46.526;24.612;2023-12-20T04:47:41;97243.09;;;-3.14;78.43
75146;BME280;63641;46.526;24.612;2023-12-20T04:50:09;97249.19;;;-3.13;77.99
75146;BME280;63641;46.526;24.612;2023-12-20T04:52:36;97249.19;;;-3.13;78.26
75146;BME280;63641;46.526;24.612;2023-12-20T04:55:04;97239.22;;;-3.11;77.88
75146;BME280;63641;46.526;24.612;2023-12-20T04:57:35;97241.66;;;-3.10;78.04
75146;BME280;63641;46.526;24.612;2023-12-20T05:00:01;97241.66;;;-3.10;78.30
75146;BME280;63641;46.526;24.612;2023-12-20T05:02:32;97241.25;;;-3.13;78.03
75146;BME280;63641;46.526;24.612;2023-12-20T05:04:59;97241.84;;;-3.18;77.90
75146;BME280;63641;46.526;24.612;2023-12-20T05:07:26;97236.38;;;-3.17;78.18
75146;BME280;63641;46.526;24.612;2023-12-20T05:09:53;97248.78;;;-3.10;78.17
75146;BME280;63641;46.526;24.612;2023-12-20T05:12:20;97243.50;;;-3.10;78.19
75146;BME280;63641;46.526;24.612;2023-12-20T05:14:47;97238.59;;;-3.13;77.77
75146;BME280;63641;46.526;24.612;2023-12-20T05:17:13;97253.06;;;-3.16;77.91
75146;BME280;63641;46.526;24.612;2023-12-20T05:19:40;97243.28;;;-3.16;78.14
75146;BME280;63641;46.526;24.612;2023-12-20T05:22:07;97227.75;;;-3.25;78.02
75146;BME280;63641;46.526;24.612;2023-12-20T05:24:34;97246.31;;;-3.19;77.72
75146;BME280;63641;46.526;24.612;2023-12-20T05:27:01;97233.09;;;-3.19;77.91
75146;BME280;63641;46.526;24.612;2023-12-20T05:29:28;97226.16;;;-3.20;77.91
75146;BME280;63641;46.526;24.612;2023-12-20T05:31:55;97231.88;;;-3.16;77.87
75146;BME280;63641;46.526;24.612;2023-12-20T05:34:21;97227.41;;;-3.16;77.78
75146;BME280;63641;46.526;24.612;2023-12-20T05:36:48;97228.81;;;-3.13;77.74
75146;BME280;63641;46.526;24.612;2023-12-20T05:39:15;97229.03;;;-3.14;77.63
75146;BME280;63641;46.526;24.612;2023-12-20T05:41:42;97236.75;;;-3.20;77.46
75146;BME280;63641;46.526;24.612;2023-12-20T05:44:09;97228.56;;;-3.25;77.70
75146;BME280;63641;46.526;24.612;2023-12-20T05:46:37;97228.97;;;-3.28;77.51
75146;BME280;63641;46.526;24.612;2023-12-20T05:49:03;97218.75;;;-3.37;77.60
75146;BME280;63641;46.526;24.612;2023-12-20T05:51:31;97216.16;;;-3.31;77.92
75146;BME280;63641;46.526;24.612;2023-12-20T05:53:58;97214.91;;;-3.28;77.75
75146;BME280;63641;46.526;24.612;2023-12-20T05:56:25;97215.72;;;-3.28;77.85
75146;BME280;63641;46.526;24.612;2023-12-20T05:58:52;97209.84;;;-3.30;77.73
75146;BME280;63641;46.526;24.612;2023-12-20T06:01:19;97207.56;;;-3.33;77.85
75146;BME280;63641;46.526;24.612;2023-12-20T06:03:45;97213.06;;;-3.34;77.67
75146;BME280;63641;46.526;24.612;2023-12-20T06:06:12;97213.06;;;-3.34;77.90
75146;BME280;63641;46.526;24.612;2023-12-20T06:08:43;97209.78;;;-3.36;77.69
75146;BME280;63641;46.526;24.612;2023-12-20T06:11:10;97204.72;;;-3.38;77.85
75146;BME280;63641;46.526;24.612;2023-12-20T06:13:37;97212.81;;;-3.40;77.78
75146;BME280;63641;46.526;24.612;2023-12-20T06:16:06;97208.13;;;-3.44;77.62
75146;BME280;63641;46.526;24.612;2023-12-20T06:18:36;97204.03;;;-3.47;77.73
75146;BME280;63641;46.526;24.612;2023-12-20T06:21:04;97205.88;;;-3.47;77.95
75146;BME280;63641;46.526;24.612;2023-12-20T06:23:31;97205.06;;;-3.48;77.67
75146;BME280;63641;46.526;24.612;2023-12-20T06:25:58;97206.88;;;-3.48;77.72
75146;BME280;63641;46.526;24.612;2023-12-20T06:28:24;97210.56;;;-3.49;77.67
75146;BME280;63641;46.526;24.612;2023-12-20T06:30:51;97203.00;;;-3.52;77.95
75146;BME280;63641;46.526;24.612;2023-12-20T06:33:21;97198.72;;;-3.53;78.05
75146;BME280;63641;46.526;24.612;2023-12-20T06:35:49;97200.78;;;-3.49;77.83
75146;BME280;63641;46.526;24.612;2023-12-20T06:38:18;97213.00;;;-3.48;77.74
75146;BME280;63641;46.526;24.612;2023-12-20T06:40:45;97197.72;;;-3.52;77.63
75146;BME280;63641;46.526;24.612;2023-12-20T06:43:13;97204.03;;;-3.53;77.72
75146;BME280;63641;46.526;24.612;2023-12-20T06:45:58;97201.59;;;-3.48;77.72
75146;BME280;63641;46.526;24.612;2023-12-20T06:48:25;97184.88;;;-3.55;77.66
75146;BME280;63641;46.526;24.612;2023-12-20T06:50:52;97194.47;;;-3.48;77.48
75146;BME280;63641;46.526;24.612;2023-12-20T06:53:19;97196.09;;;-3.47;77.77
75146;BME280;63641;46.526;24.612;2023-12-20T06:55:46;97188.97;;;-3.46;77.78
75146;BME280;63641;46.526;24.612;2023-12-20T06:58:12;97189.59;;;-3.44;77.63
75146;BME280;63641;46.526;24.612;2023-12-20T07:00:39;97189.81;;;-3.39;77.65
75146;BME280;63641;46.526;24.612;2023-12-20T07:03:06;97184.97;;;-3.35;77.54
75146;BME280;63641;46.526;24.612;2023-12-20T07:05:33;97185.38;;;-3.32;77.38
75146;BME280;63641;46.526;24.612;2023-12-20T07:08:00;97187.03;;;-3.24;77.55
75146;BME280;63641;46.526;24.612;2023-12-20T07:10:27;97177.91;;;-3.22;77.34
75146;BME280;63641;46.526;24.612;2023-12-20T07:12:54;97184.22;;;-3.23;77.45
75146;BME280;63641;46.526;24.612;2023-12-20T07:15:22;97187.47;;;-3.21;77.40
75146;BME280;63641;46.526;24.612;2023-12-20T07:17:51;97172.00;;;-3.24;77.44
75146;BME280;63641;46.526;24.612;2023-12-20T07:20:18;97175.66;;;-3.25;77.26
75146;BME280;63641;46.526;24.612;2023-12-20T07:22:45;97168.72;;;-3.26;77.72
75146;BME280;63641;46.526;24.612;2023-12-20T07:25:12;97167.31;;;-3.22;77.50
75146;BME280;63641;46.526;24.612;2023-12-20T07:27:39;97172.63;;;-3.22;77.35
75146;BME280;63641;46.526;24.612;2023-12-20T07:30:11;97174.66;;;-3.24;77.59
75146;BME280;63641;46.526;24.612;2023-12-20T07:32:38;97164.06;;;-3.24;77.36
75146;BME280;63641;46.526;24.612;2023-12-20T07:35:05;97159.56;;;-3.30;77.59
75146;BME280;63641;46.526;24.612;2023-12-20T07:37:32;97160.56;;;-3.37;77.16
75146;BME280;63641;46.526;24.612;2023-12-20T07:39:59;97158.28;;;-3.41;77.53
75146;BME280;63641;46.526;24.612;2023-12-20T07:42:26;97158.88;;;-3.45;77.76
75146;BME280;63641;46.526;24.612;2023-12-20T07:44:53;97146.66;;;-3.46;77.86
75146;BME280;63641;46.526;24.612;2023-12-20T07:47:21;97143.63;;;-3.43;77.94
75146;BME280;63641;46.526;24.612;2023-12-20T07:49:51;97135.91;;;-3.45;77.78
75146;BME280;63641;46.526;24.612;2023-12-20T07:52:19;97124.91;;;-3.48;77.89
75146;BME280;63641;46.526;24.612;2023-12-20T07:54:46;97138.75;;;-3.40;77.94
75146;BME280;63641;46.526;24.612;2023-12-20T07:57:13;97138.78;;;-3.33;77.93
75146;BME280;63641;46.526;24.612;2023-12-20T07:59:40;97127.38;;;-3.33;77.73
75146;BME280;63641;46.526;24.612;2023-12-20T08:02:06;97128.63;;;-3.29;77.63
75146;BME280;63641;46.526;24.612;2023-12-20T08:04:34;97126.41;;;-3.26;77.51
75146;BME280;63641;46.526;24.612;2023-12-20T08:07:00;97120.91;;;-3.24;77.39
75146;BME280;63641;46.526;24.612;2023-12-20T08:09:27;97117.47;;;-3.18;77.65
75146;BME280;63641;46.526;24.612;2023-12-20T08:11:54;97114.22;;;-3.13;77.41
75146;BME280;63641;46.526;24.612;2023-12-20T08:14:21;97109.75;;;-3.06;77.34
75146;BME280;63641;46.526;24.612;2023-12-20T08:16:48;97101.84;;;-3.00;77.14
75146;BME280;63641;46.526;24.612;2023-12-20T08:19:14;97100.66;;;-2.90;77.25
75146;BME280;63641;46.526;24.612;2023-12-20T08:21:41;97102.06;;;-2.81;76.96
75146;BME280;63641;46.526;24.612;2023-12-20T08:24:08;97092.69;;;-2.77;76.84
75146;BME280;63641;46.526;24.612;2023-12-20T08:26:35;97090.28;;;-2.72;76.80
75146;BME280;63641;46.526;24.612;2023-12-20T08:29:02;97094.34;;;-2.70;76.70
75146;BME280;63641;46.526;24.612;2023-12-20T08:31:29;97085.41;;;-2.69;76.66
75146;BME280;63641;46.526;24.612;2023-12-20T08:33:56;97077.22;;;-2.67;76.68
75146;BME280;63641;46.526;24.612;2023-12-20T08:36:23;97081.91;;;-2.62;76.72
75146;BME280;63641;46.526;24.612;2023-12-20T08:38:51;97081.09;;;-2.56;76.78
75146;BME280;63641;46.526;24.612;2023-12-20T08:41:18;97075.41;;;-2.53;76.75
75146;BME280;63641;46.526;24.612;2023-12-20T08:43:45;97077.22;;;-2.47;76.59
75146;BME280;63641;46.526;24.612;2023-12-20T08:46:11;97078.44;;;-2.43;76.51
75146;BME280;63641;46.526;24.612;2023-12-20T08:48:39;97069.69;;;-2.44;76.70
75146;BME280;63641;46.526;24.612;2023-12-20T08:51:07;97071.09;;;-2.41;76.31
75146;BME280;63641;46.526;24.612;2023-12-20T08:53:35;97072.53;;;-2.38;76.50
75146;BME280;63641;46.526;24.612;2023-12-20T08:56:02;97068.88;;;-2.31;76.61
75146;BME280;63641;46.526;24.612;2023-12-20T08:58:29;97067.22;;;-2.25;76.41
75146;BME280;63641;46.526;24.612;2023-12-20T09:00:56;97058.03;;;-2.23;76.53
75146;BME280;63641;46.526;24.612;2023-12-20T09:03:24;97053.97;;;-2.19;76.44
75146;BME280;63641;46.526;24.612;2023-12-20T09:05:51;97041.50;;;-2.18;76.24
75146;BME280;63641;46.526;24.612;2023-12-20T09:08:18;97042.94;;;-2.15;76.25
75146;BME280;63641;46.526;24.612;2023-12-20T09:10:45;97029.88;;;-2.10;76.27
75146;BME280;63641;46.526;24.612;2023-12-20T09:13:12;97022.94;;;-2.05;76.56
75146;BME280;63641;46.526;24.612;2023-12-20T09:15:39;97015.38;;;-2.01;76.37
75146;BME280;63641;46.526;24.612;2023-12-20T09:18:06;96999.22;;;-1.93;76.36
75146;BME280;63641;46.526;24.612;2023-12-20T09:20:34;96986.59;;;-1.91;76.41
75146;BME280;63641;46.526;24.612;2023-12-20T09:23:01;96987.97;;;-1.82;76.50
75146;BME280;63641;46.526;24.612;2023-12-20T09:25:28;96974.69;;;-1.75;76.18
75146;BME280;63641;46.526;24.612;2023-12-20T09:27:55;96966.47;;;-1.67;76.12
75146;BME280;63641;46.526;24.612;2023-12-20T09:30:22;96961.94;;;-1.60;76.31
75146;BME280;63641;46.526;24.612;2023-12-20T09:32:54;96962.31;;;-1.50;76.09
75146;BME280;63641;46.526;24.612;2023-12-20T09:35:21;96953.28;;;-1.42;75.98
75146;BME280;63641;46.526;24.612;2023-12-20T09:37:49;96941.81;;;-1.36;76.14
75146;BME280;63641;46.526;24.612;2023-12-20T09:40:18;96938.28;;;-1.30;75.99
75146;BME280;63641;46.526;24.612;2023-12-20T09:42:56;96936.38;;;-1.23;75.93
75146;BME280;63641;46.526;24.612;2023-12-20T09:45:24;96928.00;;;-1.19;75.85
75146;BME280;63641;46.526;24.612;2023-12-20T09:47:54;96923.06;;;-1.16;75.95
75146;BME280;63641;46.526;24.612;2023-12-20T09:50:22;96919.38;;;-1.15;75.86
75146;BME280;63641;46.526;24.612;2023-12-20T09:52:51;96907.38;;;-1.17;75.92
75146;BME280;63641;46.526;24.612;2023-12-20T09:55:18;96908.75;;;-1.15;76.18
75146;BME280;63641;46.526;24.612;2023-12-20T09:57:47;96905.91;;;-1.13;76.29
75146;BME280;63641;46.526;24.612;2023-12-20T10:00:15;96895.81;;;-1.05;75.95
75146;BME280;63641;46.526;24.612;2023-12-20T10:02:59;96896.34;;;-0.96;76.22
75146;BME280;63641;46.526;24.612;2023-12-20T10:05:28;96894.38;;;-0.82;75.84
75146;BME280;63641;46.526;24.612;2023-12-20T10:07:56;96883.63;;;-0.69;75.67
75146;BME280;63641;46.526;24.612;2023-12-20T10:10:23;96873.50;;;-0.60;75.63
75146;BME280;63641;46.526;24.612;2023-12-20T10:13:05;96873.13;;;-0.45;75.50
75146;BME280;63641;46.526;24.612;2023-12-20T10:15:35;96867.31;;;-0.36;74.98
75146;BME280;63641;46.526;24.612;2023-12-20T10:18:03;96861.25;;;-0.25;75.37
75146;BME280;63641;46.526;24.612;2023-12-20T10:20:31;96862.19;;;-0.19;75.13
75146;BME280;63641;46.526;24.612;2023-12-20T10:22:59;96862.91;;;-0.12;74.94
75146;BME280;63641;46.526;24.612;2023-12-20T10:25:27;96858.19;;;-0.10;74.76
75146;BME280;63641;46.526;24.612;2023-12-20T10:28:14;96857.38;;;-0.10;75.00
75146;BME280;63641;46.526;24.612;2023-12-20T10:30:44;96854.13;;;-0.12;75.22
75146;BME280;63641;46.526;24.612;2023-12-20T10:33:11;96856.56;;;-0.11;75.46
75146;BME280;63641;46.526;24.612;2023-12-20T10:35:39;96852.19;;;-0.05;75.23
75146;BME280;63641;46.526;24.612;2023-12-20T10:38:11;96853.59;;;-0.03;75.38
75146;BME280;63641;46.526;24.612;2023-12-20T10:40:40;96829.28;;;-0.06;75.42
75146;BME280;63641;46.526;24.612;2023-12-20T10:43:08;96849.56;;;0.07;75.04
75146;BME280;63641;46.526;24.612;2023-12-20T10:45:36;96839.28;;;0.10;74.90
75146;BME280;63641;46.526;24.612;2023-12-20T10:48:04;96846.38;;;0.16;75.17
75146;BME280;63641;46.526;24.612;2023-12-20T10:50:31;96837.59;;;0.16;75.40
75146;BME280;63641;46.526;24.612;2023-12-20T10:52:58;96837.94;;;0.19;75.27
75146;BME280;63641;46.526;24.612;2023-12-20T10:55:26;96829.97;;;0.19;75.16
75146;BME280;63641;46.526;24.612;2023-12-20T10:58:01;96831.69;;;0.26;75.28
75146;BME280;63641;46.526;24.612;2023-12-20T11:00:29;96828.81;;;0.27;75.07
75146;BME280;63641;46.526;24.612;2023-12-20T11:03:00;96820.84;;;0.27;75.55
75146;BME280;63641;46.526;24.612;2023-12-20T11:05:51;96817.72;;;0.30;75.24
75146;BME280;63641;46.526;24.612;2023-12-20T11:08:32;96816.44;;;0.33;75.32
75146;BME280;63641;46.526;24.612;2023-12-20T11:11:14;96806.16;;;0.36;75.27
75146;BME280;63641;46.526;24.612;2023-12-20T11:14:06;96808.13;;;0.41;75.21
75146;BME280;63641;46.526;24.612;2023-12-20T11:16:38;96814.16;;;0.48;75.34
75146;BME280;63641;46.526;24.612;2023-12-20T11:19:19;96806.28;;;0.53;75.11
75146;BME280;63641;46.526;24.612;2023-12-20T11:21:47;96801.69;;;0.60;75.21
75146;BME280;63641;46.526;24.612;2023-12-20T11:24:15;96800.75;;;0.66;74.78
75146;BME280;63641;46.526;24.612;2023-12-20T11:26:47;96801.56;;;0.67;74.90
75146;BME280;63641;46.526;24.612;2023-12-20T11:29:35;96805.25;;;0.66;75.17
75146;BME280;63641;46.526;24.612;2023-12-20T11:32:03;96784.19;;;0.64;75.11
75146;BME280;63641;46.526;24.612;2023-12-20T11:35:16;96786.16;;;0.69;74.97
75146;BME280;63641;46.526;24.612;2023-12-20T11:37:47;96772.38;;;0.72;75.26
75146;BME280;63641;46.526;24.612;2023-12-20T11:40:16;96772.97;;;0.74;75.13
75146;BME280;63641;46.526;24.612;2023-12-20T11:42:50;96768.56;;;0.80;74.92
75146;BME280;63641;46.526;24.612;2023-12-20T11:45:20;96774.22;;;0.83;75.13
75146;BME280;63641;46.526;24.612;2023-12-20T11:47:50;96771.09;;;0.86;75.07
75146;BME280;63641;46.526;24.612;2023-12-20T11:50:18;96761.72;;;0.84;75.16
75146;BME280;63641;46.526;24.612;2023-12-20T11:52:45;96762.41;;;0.91;74.97
75146;BME280;63641;46.526;24.612;2023-12-20T11:55:12;96757.22;;;0.96;75.00
75146;BME280;63641;46.526;24.612;2023-12-20T11:57:39;96748.97;;;0.98;74.83
75146;BME280;63641;46.526;24.612;2023-12-20T12:00:07;96755.22;;;1.03;75.43
75146;BME280;63641;46.526;24.612;2023-12-20T12:02:34;96739.81;;;1.05;74.90
75146;BME280;63641;46.526;24.612;2023-12-20T12:05:01;96741.19;;;1.08;74.94
75146;BME280;63641;46.526;24.612;2023-12-20T12:07:33;96733.75;;;1.10;75.06
75146;BME280;63641;46.526;24.612;2023-12-20T12:10:00;96726.81;;;1.09;74.93
75146;BME280;63641;46.526;24.612;2023-12-20T12:12:27;96726.91;;;1.14;74.91
75146;BME280;63641;46.526;24.612;2023-12-20T12:14:54;96738.75;;;1.18;75.01
75146;BME280;63641;46.526;24.612;2023-12-20T12:17:23;96728.44;;;1.22;74.92
75146;BME280;63641;46.526;24.612;2023-12-20T12:19:50;96729.78;;;1.24;75.01
75146;BME280;63641;46.526;24.612;2023-12-20T12:22:17;96723.75;;;1.29;75.03
75146;BME280;63641;46.526;24.612;2023-12-20T12:24:47;96716.09;;;1.32;75.05
75146;BME280;63641;46.526;24.612;2023-12-20T12:27:14;96718.06;;;1.37;74.58
75146;BME280;63641;46.526;24.612;2023-12-20T12:29:41;96710.41;;;1.40;74.55
75146;BME280;63641;46.526;24.612;2023-12-20T12:32:25;96708.16;;;1.49;74.45
75146;BME280;63641;46.526;24.612;2023-12-20T12:34:53;96700.25;;;1.54;74.68
75146;BME280;63641;46.526;24.612;2023-12-20T12:37:19;96696.28;;;1.57;74.22
75146;BME280;63641;46.526;24.612;2023-12-20T12:39:46;96689.44;;;1.61;74.47
75146;BME280;63641;46.526;24.612;2023-12-20T12:42:13;96693.56;;;1.68;74.73
75146;BME280;63641;46.526;24.612;2023-12-20T12:44:40;96684.88;;;1.73;74.42
75146;BME280;63641;46.526;24.612;2023-12-20T12:47:07;96680.66;;;1.77;74.31
75146;BME280;63641;46.526;24.612;2023-12-20T12:49:34;96680.75;;;1.82;74.21
75146;BME280;63641;46.526;24.612;2023-12-20T12:52:01;96681.06;;;1.86;74.11
75146;BME280;63641;46.526;24.612;2023-12-20T12:54:29;96675.16;;;1.84;74.32
75146;BME280;63641;46.526;24.612;2023-12-20T12:56:56;96667.16;;;1.84;74.10
75146;BME280;63641;46.526;24.612;2023-12-20T12:59:24;96667.41;;;1.82;74.54